Time;durP1;ratioP1;P1;durP2;ratioP2;P2;SDS_P1;SDS_P2;PMS_P1;PMS_P2;Temp;Humidity;BMP_temperature;BMP_pressure;BME280_temperature;BME280_humidity;BME280_pressure;Samples;Min_cycle;Max_cycle;Signal;HPM_P1;HPM_P2
2023/07/23 00:00:14;;;;;;;6.95;4.22;;;;;;;20.10;67.20;100917.63;5010077;28;20113;-44
2023/07/23 00:02:39;;;;;;;6.88;4.10;;;;;;;20.20;66.67;100915.59;5009493;28;20038;-45
2023/07/23 00:05:05;;;;;;;6.22;3.90;;;;;;;20.16;66.94;100919.25;5009973;28;20214;-46
2023/07/23 00:07:30;;;;;;;5.45;3.80;;;;;;;20.13;67.14;100916.66;5009725;28;20125;-43
2023/07/23 00:09:56;;;;;;;7.78;4.38;;;;;;;20.09;67.42;100920.28;5009635;28;20034;-41
2023/07/23 00:12:21;;;;;;;8.00;4.40;;;;;;;20.06;67.50;100913.31;5009442;28;20096;-44
2023/07/23 00:14:46;;;;;;;8.70;4.57;;;;;;;19.89;68.41;100910.19;5010474;28;20065;-43
2023/07/23 00:17:12;;;;;;;8.77;4.57;;;;;;;19.89;68.44;100914.63;5011524;28;20034;-46
2023/07/23 00:19:37;;;;;;;6.97;4.20;;;;;;;20.06;67.81;100907.16;5010983;28;20030;-44
2023/07/23 00:22:02;;;;;;;7.15;4.15;;;;;;;19.89;68.38;100907.53;5012290;28;20100;-45
2023/07/23 00:24:28;;;;;;;6.72;4.10;;;;;;;20.01;67.92;100899.31;5012128;28;20041;-44
2023/07/23 00:26:53;;;;;;;7.50;3.97;;;;;;;20.02;68.12;100893.09;5012074;28;20030;-44
2023/07/23 00:29:18;;;;;;;7.93;4.00;;;;;;;20.12;67.59;100886.69;5010974;28;20073;-46
2023/07/23 00:31:44;;;;;;;8.82;4.00;;;;;;;19.77;68.06;100884.03;4969795;28;1105841;-44
2023/07/23 00:34:09;;;;;;;7.35;3.85;;;;;;;19.88;68.60;100883.78;5010775;28;20512;-43
2023/07/23 00:36:34;;;;;;;6.70;3.90;;;;;;;20.08;67.79;100887.66;5010432;28;20034;-50
2023/07/23 00:39:00;;;;;;;7.30;3.78;;;;;;;19.87;68.53;100880.28;5011030;28;20036;-50
2023/07/23 00:41:25;;;;;;;6.78;4.00;;;;;;;19.99;68.17;100877.31;5009480;28;20172;-48
2023/07/23 00:43:50;;;;;;;7.95;4.20;;;;;;;20.16;67.83;100877.75;5008151;28;20033;-45
2023/07/23 00:46:16;;;;;;;9.02;3.90;;;;;;;20.20;67.46;100868.81;5009409;28;20073;-44
2023/07/23 00:48:42;;;;;;;8.93;4.22;;;;;;;20.13;67.65;100869.88;5009889;28;20034;-49
2023/07/23 00:51:07;;;;;;;7.50;4.35;;;;;;;20.24;67.44;100866.97;5009710;28;20071;-43
2023/07/23 00:53:32;;;;;;;7.90;4.30;;;;;;;20.20;67.65;100866.16;5008410;28;20584;-44
2023/07/23 00:55:59;;;;;;;6.70;3.90;;;;;;;20.37;67.11;100860.44;5010268;28;20040;-46
2023/07/23 00:58:24;;;;;;;6.82;4.20;;;;;;;20.23;67.73;100852.00;5009711;28;20079;-43
2023/07/23 01:00:50;;;;;;;8.00;3.88;;;;;;;20.37;67.26;100851.66;5009775;28;20038;-43
2023/07/23 01:03:16;;;;;;;8.15;4.57;;;;;;;20.26;67.91;100854.53;5010324;28;20036;-45
2023/07/23 01:05:45;;;;;;;9.40;4.70;;;;;;;20.32;67.68;100848.22;5010590;28;20042;-46
2023/07/23 01:08:11;;;;;;;8.45;5.30;;;;;;;20.24;68.03;100844.03;5011344;28;20574;-45
2023/07/23 01:10:37;;;;;;;8.20;4.75;;;;;;;20.18;68.14;100843.31;5010348;28;20038;-44
2023/07/23 01:13:03;;;;;;;7.40;4.80;;;;;;;20.22;68.27;100829.94;5010051;28;20084;-47
2023/07/23 01:15:29;;;;;;;9.98;5.13;;;;;;;20.23;68.23;100826.41;5009776;28;20124;-47
2023/07/23 01:17:57;;;;;;;8.55;4.90;;;;;;;20.24;68.42;100832.56;5010074;28;20164;-49
2023/07/23 01:20:23;;;;;;;9.65;5.13;;;;;;;20.20;68.60;100829.09;5009413;28;20030;-50
2023/07/23 01:22:48;;;;;;;9.45;5.28;;;;;;;20.19;68.92;100823.84;5009603;28;20488;-45
2023/07/23 01:25:13;;;;;;;9.98;5.55;;;;;;;20.05;69.43;100823.38;5009849;28;20033;-45
2023/07/23 01:27:39;;;;;;;8.00;5.00;;;;;;;20.12;69.20;100815.22;5009453;28;20122;-44
2023/07/23 01:30:08;;;;;;;10.35;5.50;;;;;;;20.02;69.49;100813.72;5009464;28;20469;-44
2023/07/23 01:32:33;;;;;;;8.80;5.15;;;;;;;20.15;69.27;100809.84;5014521;28;20490;-45
2023/07/23 01:35:03;;;;;;;9.32;5.38;;;;;;;20.15;69.35;100804.56;5013657;28;20030;-44
2023/07/23 01:37:29;;;;;;;10.65;5.13;;;;;;;20.17;69.26;100796.56;5015307;28;20044;-46
2023/07/23 01:39:54;;;;;;;7.47;4.75;;;;;;;20.30;69.00;100797.09;5014190;28;20034;-46
2023/07/23 01:42:20;;;;;;;9.18;5.40;;;;;;;20.30;69.01;100797.09;5013374;28;20353;-48
2023/07/23 01:44:45;;;;;;;9.50;5.60;;;;;;;20.29;68.96;100796.25;5013268;28;20511;-45
2023/07/23 01:47:10;;;;;;;9.85;5.50;;;;;;;20.25;69.12;100787.50;5013858;28;20053;-44
2023/07/23 01:49:36;;;;;;;8.82;5.35;;;;;;;20.26;69.27;100788.38;5013124;28;20033;-43
2023/07/23 01:52:01;;;;;;;8.65;4.93;;;;;;;20.27;69.11;100783.03;5013091;28;20121;-45
2023/07/23 01:54:27;;;;;;;10.02;5.45;;;;;;;20.31;69.18;100782.97;5012983;28;20096;-45
2023/07/23 01:56:53;;;;;;;8.02;5.22;;;;;;;20.24;69.29;100777.84;5013564;28;20037;-44
2023/07/23 01:59:18;;;;;;;9.23;5.38;;;;;;;20.29;69.14;100776.84;5014846;28;20037;-44
2023/07/23 02:01:43;;;;;;;7.45;5.10;;;;;;;20.34;69.07;100782.91;5014143;28;20911;-46
2023/07/23 02:04:09;;;;;;;8.52;5.00;;;;;;;20.36;68.95;100776.66;5012205;28;20065;-49
2023/07/23 02:06:35;;;;;;;9.38;4.93;;;;;;;20.29;69.17;100764.47;5012962;28;20070;-43
2023/07/23 02:09:01;;;;;;;9.18;5.40;;;;;;;20.27;69.47;100763.63;5013579;28;20084;-45
2023/07/23 02:11:26;;;;;;;9.23;5.32;;;;;;;20.24;69.06;100761.09;5014485;28;20065;-45
2023/07/23 02:13:51;;;;;;;9.10;5.28;;;;;;;20.27;69.22;100755.69;5015645;28;20080;-47
2023/07/23 02:16:18;;;;;;;8.07;5.10;;;;;;;20.27;69.41;100751.25;5014262;28;20069;-44
2023/07/23 02:18:43;;;;;;;7.47;5.10;;;;;;;20.32;69.18;100748.50;5012191;28;20034;-43
2023/07/23 02:21:08;;;;;;;10.00;5.07;;;;;;;20.25;69.19;100741.63;5013219;28;20040;-42
2023/07/23 02:23:34;;;;;;;8.90;5.07;;;;;;;20.26;69.54;100736.28;5014283;28;20041;-47
2023/07/23 02:25:59;;;;;;;6.30;4.50;;;;;;;20.41;69.19;100728.84;5014869;28;20041;-44
2023/07/23 02:28:24;;;;;;;8.07;4.75;;;;;;;20.40;69.13;100728.00;5010973;28;20501;-44
2023/07/23 02:31:00;;;;;;;7.43;4.63;;;;;;;20.41;69.11;100719.13;5011991;28;20042;-44
2023/07/23 02:33:26;;;;;;;7.28;4.68;;;;;;;20.21;69.53;100717.03;5012015;28;20528;-44
2023/07/23 02:35:51;;;;;;;9.40;4.72;;;;;;;20.26;69.31;100715.09;5012572;28;20196;-44
2023/07/23 02:38:17;;;;;;;7.85;4.40;;;;;;;20.39;68.94;100706.84;5012469;28;20559;-46
2023/07/23 02:40:42;;;;;;;7.00;4.50;;;;;;;20.38;68.93;100703.31;5010444;28;20034;-53
2023/07/23 02:43:12;;;;;;;8.65;4.60;;;;;;;20.29;68.66;100700.94;5012080;28;20030;-47
2023/07/23 02:45:38;;;;;;;7.05;4.25;;;;;;;20.42;68.61;100697.03;5012029;28;20507;-47
2023/07/23 02:48:03;;;;;;;7.00;3.95;;;;;;;20.47;68.37;100692.47;5012548;28;20030;-45
2023/07/23 02:50:29;;;;;;;6.45;3.65;;;;;;;20.43;68.30;100687.31;5011045;28;20524;-47
2023/07/23 02:52:54;;;;;;;7.82;4.22;;;;;;;20.45;68.16;100681.03;5012010;28;20099;-45
2023/07/23 02:55:20;;;;;;;7.70;4.05;;;;;;;20.50;68.05;100679.13;5012198;28;20073;-45
2023/07/23 02:57:45;;;;;;;8.30;4.30;;;;;;;20.37;68.23;100690.16;5011755;28;20030;-46
2023/07/23 03:00:11;;;;;;;6.50;4.00;;;;;;;20.48;67.98;100680.09;5011651;28;20216;-44
2023/07/23 03:02:37;;;;;;;6.30;3.75;;;;;;;20.50;67.91;100671.19;5011598;28;20555;-47
2023/07/23 03:05:03;;;;;;;9.07;4.00;;;;;;;20.52;67.85;100665.84;5012091;28;20229;-46
2023/07/23 03:07:31;;;;;;;7.13;3.70;;;;;;;20.48;67.96;100662.44;5011364;28;20068;-48
2023/07/23 03:09:56;;;;;;;7.53;3.42;;;;;;;20.50;68.18;100665.00;5011550;28;20357;-48
2023/07/23 03:12:22;;;;;;;6.88;3.70;;;;;;;20.50;68.21;100655.28;5011986;28;20068;-46
2023/07/23 03:14:47;;;;;;;5.43;3.75;;;;;;;20.51;68.22;100657.03;5011329;28;20615;-44
2023/07/23 03:17:12;;;;;;;7.40;3.90;;;;;;;20.57;67.98;100653.31;5012136;28;20057;-47
2023/07/23 03:19:37;;;;;;;7.18;3.67;;;;;;;20.47;68.06;100655.41;5011505;28;20065;-45
2023/07/23 03:22:03;;;;;;;6.75;4.05;;;;;;;20.50;68.20;100646.47;5011192;28;20034;-45
2023/07/23 03:24:29;;;;;;;6.18;3.60;;;;;;;20.48;68.12;100643.91;5011494;28;20034;-43
2023/07/23 03:26:54;;;;;;;7.32;3.80;;;;;;;20.46;68.15;100640.41;5011516;28;20236;-43
2023/07/23 03:29:19;;;;;;;6.53;3.90;;;;;;;20.49;68.18;100640.31;5011637;28;20042;-43
2023/07/23 03:31:45;;;;;;;8.60;3.90;;;;;;;20.45;68.24;100632.50;5010484;28;20049;-45
2023/07/23 03:34:10;;;;;;;5.97;3.70;;;;;;;20.49;68.14;100637.66;5011605;28;20049;-45
2023/07/23 03:36:35;;;;;;;4.68;3.38;;;;;;;20.54;67.99;100626.94;5011171;28;20539;-48
2023/07/23 03:39:01;;;;;;;6.18;3.63;;;;;;;20.55;68.28;100629.53;5011312;28;20417;-44
2023/07/23 03:41:26;;;;;;;6.53;3.90;;;;;;;20.50;68.19;100618.22;5010438;28;20060;-44
2023/07/23 03:43:51;;;;;;;7.47;3.90;;;;;;;20.50;67.95;100618.22;5011515;28;20074;-44
2023/07/23 03:46:17;;;;;;;7.22;4.03;;;;;;;20.44;68.17;100618.41;5012453;28;20245;-42
2023/07/23 03:48:42;;;;;;;7.80;3.72;;;;;;;20.43;68.10;100618.47;5012273;28;20527;-45
2023/07/23 03:51:07;;;;;;;6.85;4.10;;;;;;;20.37;68.30;100613.38;5012522;28;20022;-44
2023/07/23 03:53:33;;;;;;;7.88;4.00;;;;;;;20.45;67.88;100619.28;5015687;28;20038;-44
2023/07/23 03:55:58;;;;;;;7.72;4.00;;;;;;;20.41;68.04;100612.34;5014746;28;20115;-46
2023/07/23 03:58:23;;;;;;;6.88;4.03;;;;;;;20.21;67.91;100611.13;5012489;28;20038;-44
2023/07/23 04:00:49;;;;;;;8.15;4.03;;;;;;;20.43;67.58;100607.88;5009951;28;20026;-48
2023/07/23 04:03:14;;;;;;;8.20;4.00;;;;;;;20.43;67.44;100602.59;5011781;28;20445;-43
2023/07/23 04:05:39;;;;;;;7.85;3.97;;;;;;;20.40;67.58;100597.38;5012358;28;20037;-46
2023/07/23 04:08:05;;;;;;;5.35;3.92;;;;;;;20.54;66.99;100603.97;5011929;28;20034;-48
2023/07/23 04:10:30;;;;;;;7.93;4.20;;;;;;;20.39;67.04;100609.75;5010237;28;20129;-45
2023/07/23 04:12:55;;;;;;;6.47;3.88;;;;;;;20.56;66.96;100607.44;5011878;28;20038;-43
2023/07/23 04:15:21;;;;;;;6.53;3.80;;;;;;;20.54;67.27;100605.75;5012095;28;20042;-44
2023/07/23 04:17:46;;;;;;;7.47;4.18;;;;;;;20.56;67.11;100599.47;5011540;28;20084;-43
2023/07/23 04:20:12;;;;;;;9.10;4.20;;;;;;;20.26;68.08;100598.63;5011264;28;20046;-48
2023/07/23 04:22:37;;;;;;;10.38;4.38;;;;;;;20.26;68.31;100601.28;5011531;28;20057;-42
2023/07/23 04:25:03;;;;;;;6.50;4.00;;;;;;;20.37;68.04;100598.31;5011807;28;20061;-44
2023/07/23 04:27:28;;;;;;;7.95;3.97;;;;;;;20.39;68.26;100590.34;5011338;28;20496;-45
2023/07/23 04:29:54;;;;;;;9.15;4.10;;;;;;;20.41;68.78;100594.69;5010779;28;20388;-43
2023/07/23 04:32:19;;;;;;;7.82;4.20;;;;;;;20.53;67.92;100593.44;5009068;28;20042;-45
2023/07/23 04:34:45;;;;;;;8.60;4.10;;;;;;;20.63;67.57;100594.84;5011129;28;20045;-46
2023/07/23 04:37:11;;;;;;;9.30;4.30;;;;;;;20.52;68.39;100589.91;5010947;28;20030;-52
2023/07/23 04:39:37;;;;;;;11.50;4.70;;;;;;;20.38;68.63;100592.13;5009648;28;20504;-48
2023/07/23 04:42:03;;;;;;;7.93;4.13;;;;;;;20.61;68.45;100591.41;5009027;28;20030;-44
2023/07/23 04:44:28;;;;;;;10.00;4.75;;;;;;;20.37;68.85;100584.25;5008854;28;20499;-45
2023/07/23 04:46:54;;;;;;;8.30;4.30;;;;;;;19.93;70.58;100583.78;5010500;28;20040;-43
2023/07/23 04:49:19;;;;;;;8.95;4.32;;;;;;;20.45;68.70;100584.84;5010288;28;20070;-45
2023/07/23 04:51:44;;;;;;;9.38;4.68;;;;;;;20.43;68.50;100587.53;5008041;28;20034;-45
2023/07/23 04:54:10;;;;;;;9.68;4.65;;;;;;;20.51;68.36;100584.66;5010167;28;20036;-45
2023/07/23 04:56:35;;;;;;;10.80;4.70;;;;;;;20.38;69.26;100592.13;5009743;28;20121;-44
2023/07/23 04:59:00;;;;;;;9.98;4.90;;;;;;;20.35;68.83;100588.72;5010090;28;20121;-43
2023/07/23 05:01:26;;;;;;;9.75;4.63;;;;;;;20.60;68.73;100589.66;5009095;28;20542;-46
2023/07/23 05:03:51;;;;;;;13.07;5.20;;;;;;;20.51;68.78;100584.66;5010094;28;20098;-47
2023/07/23 05:06:16;;;;;;;9.27;4.65;;;;;;;20.62;68.49;100591.34;5010196;28;20037;-44
2023/07/23 05:08:42;;;;;;;8.50;4.72;;;;;;;20.30;68.42;100590.59;5009290;28;20037;-46
2023/07/23 05:11:07;;;;;;;8.70;4.70;;;;;;;20.07;69.36;100588.63;5009906;28;20037;-45
2023/07/23 05:13:35;;;;;;;10.60;4.53;;;;;;;20.34;68.48;100593.13;5009682;28;20133;-44
2023/07/23 05:16:05;;;;;;;8.95;4.45;;;;;;;20.27;68.72;100595.06;5010648;28;20125;-44
2023/07/23 05:18:31;;;;;;;10.20;4.55;;;;;;;20.29;68.49;100595.03;5009614;28;20038;-50
2023/07/23 05:20:56;;;;;;;8.35;4.15;;;;;;;20.23;68.33;100596.09;5009704;28;20088;-52
2023/07/23 05:23:22;;;;;;;7.50;4.43;;;;;;;20.24;68.19;100595.19;5010153;28;20034;-47
2023/07/23 05:25:48;;;;;;;9.75;4.50;;;;;;;20.32;68.06;100599.34;5009610;28;20400;-48
2023/07/23 05:28:13;;;;;;;8.40;4.40;;;;;;;20.32;68.14;100596.69;5010033;28;20072;-45
2023/07/23 05:30:39;;;;;;;6.88;3.97;;;;;;;20.13;69.02;100599.91;5008894;28;20052;-49
2023/07/23 05:33:05;;;;;;;9.55;4.47;;;;;;;19.90;70.33;100591.78;5011119;28;20034;-50
2023/07/23 05:35:30;;;;;;;9.10;4.10;;;;;;;19.81;70.99;100594.72;5009876;28;20554;-42
2023/07/23 05:37:56;;;;;;;8.90;4.70;;;;;;;19.77;70.78;100593.91;5010542;28;20124;-47
2023/07/23 05:40:22;;;;;;;11.30;4.53;;;;;;;19.84;70.84;100599.91;5009817;28;20041;-44
2023/07/23 05:42:47;;;;;;;11.07;4.70;;;;;;;19.58;72.19;100587.41;5009530;28;20096;-45
2023/07/23 05:45:12;;;;;;;9.75;4.75;;;;;;;19.31;73.42;100596.09;5009752;28;20034;-46
2023/07/23 05:47:38;;;;;;;13.55;4.93;;;;;;;19.46;72.68;100586.91;5009067;28;20045;-47
2023/07/23 05:50:04;;;;;;;9.52;4.57;;;;;;;19.74;71.89;100590.50;5009062;28;20041;-45
2023/07/23 05:52:29;;;;;;;8.95;4.57;;;;;;;19.68;72.01;100588.91;5008886;28;20489;-45
2023/07/23 05:54:54;;;;;;;9.55;4.70;;;;;;;19.84;71.69;100590.19;5009874;28;20395;-47
2023/07/23 05:57:20;;;;;;;7.90;4.50;;;;;;;19.98;71.02;100581.00;5009626;28;20085;-45
2023/07/23 05:59:45;;;;;;;9.18;4.22;;;;;;;20.14;70.74;100583.13;5008943;28;20084;-46
2023/07/23 06:02:10;;;;;;;10.90;4.57;;;;;;;19.86;71.09;100579.56;5008800;28;20034;-47
2023/07/23 06:04:38;;;;;;;7.70;4.22;;;;;;;20.10;70.67;100578.84;5008838;28;20041;-46
2023/07/23 06:07:03;;;;;;;8.30;4.43;;;;;;;19.85;70.98;100588.41;5009614;28;20033;-44
2023/07/23 06:09:29;;;;;;;6.85;4.25;;;;;;;20.08;70.14;100580.66;5011735;28;20038;-46
2023/07/23 06:11:55;;;;;;;8.63;4.20;;;;;;;20.02;70.44;100578.19;5011277;28;20087;-45
2023/07/23 06:14:20;;;;;;;6.93;4.15;;;;;;;19.89;70.78;100582.13;5011848;28;20049;-45
2023/07/23 06:16:46;;;;;;;6.25;3.80;;;;;;;20.18;69.81;100584.78;5012276;28;20034;-48
2023/07/23 06:19:11;;;;;;;11.38;4.20;;;;;;;19.92;70.25;100582.03;5013709;28;20037;-45
2023/07/23 06:21:36;;;;;;;9.27;4.03;;;;;;;19.98;70.73;100579.22;5012536;28;20038;-43
2023/07/23 06:24:02;;;;;;;9.85;4.30;;;;;;;20.13;70.32;100581.38;5015103;28;20029;-45
2023/07/23 06:26:27;;;;;;;9.25;4.30;;;;;;;20.13;70.39;100580.50;5014930;28;20104;-45
2023/07/23 06:28:53;;;;;;;9.23;4.30;;;;;;;20.15;70.71;100578.69;5013096;28;20377;-44
2023/07/23 06:31:18;;;;;;;8.43;4.68;;;;;;;20.06;70.90;100579.84;5012045;28;20420;-45
2023/07/23 06:33:44;;;;;;;8.20;4.03;;;;;;;20.29;70.02;100578.28;5012130;28;20045;-47
2023/07/23 06:36:09;;;;;;;7.75;4.22;;;;;;;20.16;70.37;100580.44;5013430;28;20058;-47
2023/07/23 06:38:34;;;;;;;9.02;4.20;;;;;;;20.13;70.12;100581.38;5013498;28;20554;-47
2023/07/23 06:41:00;;;;;;;9.85;4.30;;;;;;;20.22;69.97;100578.47;5014213;28;20041;-46
2023/07/23 06:43:25;;;;;;;6.60;4.07;;;;;;;19.97;70.24;100573.97;5011216;28;20037;-43
2023/07/23 06:45:51;;;;;;;7.47;4.28;;;;;;;19.86;71.22;100574.28;5013334;28;20065;-44
2023/07/23 06:48:19;;;;;;;8.95;4.30;;;;;;;20.16;70.49;100577.78;5012975;28;20038;-47
2023/07/23 06:50:46;;;;;;;8.95;4.70;;;;;;;20.01;70.45;100581.75;5011280;28;20038;-50
2023/07/23 06:53:12;;;;;;;9.18;4.60;;;;;;;20.35;69.44;100581.63;5012235;28;20095;-47
2023/07/23 06:55:57;;;;;;;8.05;4.22;;;;;;;20.64;68.97;100581.56;5012098;28;20125;-47
2023/07/23 06:58:22;;;;;;;6.68;4.03;;;;;;;20.79;68.20;100584.63;5010063;28;20088;-46
2023/07/23 07:00:47;;;;;;;6.88;4.10;;;;;;;20.42;69.09;100572.59;5010779;28;20373;-47
2023/07/23 07:03:13;;;;;;;8.07;3.83;;;;;;;20.56;68.25;100578.28;5012109;28;20034;-44
2023/07/23 07:05:38;;;;;;;7.05;4.00;;;;;;;20.45;68.43;100577.78;5011772;28;20044;-48
2023/07/23 07:08:04;;;;;;;10.25;4.10;;;;;;;20.72;67.03;100583.97;5011066;28;20129;-48
2023/07/23 07:10:29;;;;;;;6.70;3.78;;;;;;;20.90;65.64;100571.91;5010997;28;20059;-43
2023/07/23 07:12:54;;;;;;;6.32;3.67;;;;;;;20.94;65.99;100573.50;5011041;28;20508;-44
2023/07/23 07:15:20;;;;;;;9.48;3.92;;;;;;;20.95;65.91;100578.78;5011828;28;20596;-51
2023/07/23 07:17:45;;;;;;;7.05;3.90;;;;;;;20.93;66.06;100577.94;5011500;28;20046;-44
2023/07/23 07:20:11;;;;;;;6.82;3.67;;;;;;;20.77;65.86;100570.56;5011122;28;20160;-45
2023/07/23 07:22:36;;;;;;;7.50;3.92;;;;;;;21.14;65.17;100568.41;5011046;28;20073;-45
2023/07/23 07:25:02;;;;;;;5.65;3.40;;;;;;;21.00;65.05;100568.88;5011804;28;20121;-48
2023/07/23 07:27:27;;;;;;;5.95;3.70;;;;;;;21.15;64.77;100556.91;5010757;28;20169;-50
2023/07/23 07:29:52;;;;;;;5.90;3.55;;;;;;;21.19;64.31;100557.66;5011470;28;20111;-46
2023/07/23 07:32:18;;;;;;;6.03;3.45;;;;;;;21.16;64.60;100558.66;5011944;28;20499;-43
2023/07/23 07:34:43;;;;;;;8.20;3.40;;;;;;;21.22;64.18;100553.13;5011382;28;20092;-44
2023/07/23 07:37:08;;;;;;;7.97;3.70;;;;;;;21.28;64.01;100549.41;5012432;28;20034;-44
2023/07/23 07:39:34;;;;;;;6.22;3.70;;;;;;;21.37;62.99;100551.69;5012048;28;20030;-46
2023/07/23 07:41:59;;;;;;;6.47;3.92;;;;;;;21.19;64.08;100549.72;5011981;28;20033;-44
2023/07/23 07:44:25;;;;;;;6.88;3.47;;;;;;;21.11;64.26;100552.59;5012227;28;20096;-45
2023/07/23 07:46:50;;;;;;;5.70;3.67;;;;;;;21.50;63.46;100552.13;5011637;28;20053;-46
2023/07/23 07:49:15;;;;;;;5.30;3.40;;;;;;;21.05;64.68;100551.03;5011448;28;20037;-50
2023/07/23 07:51:43;;;;;;;6.80;3.45;;;;;;;21.32;63.25;100551.88;5010756;28;20085;-47
2023/07/23 07:54:09;;;;;;;7.05;3.60;;;;;;;20.89;65.67;100562.22;5013892;28;20049;-44
2023/07/23 07:56:35;;;;;;;5.53;3.65;;;;;;;20.97;65.39;100563.69;5011924;28;20050;-44
2023/07/23 07:59:00;;;;;;;4.88;3.40;;;;;;;21.15;64.97;100559.56;5011913;28;20216;-46
2023/07/23 08:01:26;;;;;;;6.18;3.47;;;;;;;20.89;65.67;100571.03;5011173;28;20045;-45
2023/07/23 08:03:51;;;;;;;9.50;3.60;;;;;;;21.21;64.98;100550.53;5011954;28;20033;-44
2023/07/23 08:06:18;;;;;;;6.10;3.50;;;;;;;21.56;63.71;100557.22;5010554;28;20042;-45
2023/07/23 08:08:45;;;;;;;6.15;3.35;;;;;;;20.84;65.69;100559.72;5011351;28;20582;-44
2023/07/23 08:11:11;;;;;;;6.68;3.70;;;;;;;20.99;65.61;100556.53;5012078;28;20034;-52
2023/07/23 08:13:37;;;;;;;6.57;3.45;;;;;;;20.87;65.58;100564.03;5010567;28;20038;-47
2023/07/23 08:16:04;;;;;;;5.70;3.22;;;;;;;21.41;64.40;100555.97;5013650;28;20037;-44
2023/07/23 08:18:30;;;;;;;6.55;3.45;;;;;;;21.71;63.18;100560.16;5010838;28;20096;-48
2023/07/23 08:20:57;;;;;;;6.13;3.63;;;;;;;21.41;64.43;100562.13;5010393;28;20055;-45
2023/07/23 08:23:25;;;;;;;7.22;3.60;;;;;;;21.50;64.31;100558.31;5010866;28;20435;-44
2023/07/23 08:25:57;;;;;;;7.75;3.42;;;;;;;20.93;66.29;100562.03;5010227;28;20041;-49
2023/07/23 08:28:28;;;;;;;5.32;3.35;;;;;;;21.63;64.51;100564.03;5010291;28;20056;-47
2023/07/23 08:30:56;;;;;;;5.47;3.70;;;;;;;21.69;64.07;100548.75;5009439;28;20114;-45
2023/07/23 08:33:24;;;;;;;7.45;3.50;;;;;;;21.39;65.06;100564.00;5010430;28;20030;-48
2023/07/23 08:35:50;;;;;;;6.18;3.40;;;;;;;21.67;64.24;100560.31;5010013;28;20056;-46
2023/07/23 08:38:15;;;;;;;8.13;3.78;;;;;;;21.49;64.97;100551.25;5010495;28;20061;-44
2023/07/23 08:40:43;;;;;;;6.45;3.53;;;;;;;21.72;64.43;100545.09;5009040;28;20030;-44
2023/07/23 08:43:31;;;;;;;5.22;3.55;;;;;;;21.59;64.83;100557.94;5010549;28;20443;-47
2023/07/23 08:46:22;;;;;;;5.68;3.40;;;;;;;21.57;64.66;100558.94;5010541;28;20081;-53
2023/07/23 08:49:03;;;;;;;6.50;3.25;;;;;;;22.01;63.69;100558.19;5009849;28;20026;-44
2023/07/23 08:51:33;;;;;;;5.22;3.40;;;;;;;21.98;63.38;100555.63;5009340;28;20042;-50
2023/07/23 08:53:59;;;;;;;4.90;3.20;;;;;;;21.46;65.25;100562.00;5010679;28;20038;-44
2023/07/23 08:56:24;;;;;;;8.68;3.35;;;;;;;21.49;64.97;100545.97;5009723;28;20038;-44
2023/07/23 08:58:50;;;;;;;6.18;3.67;;;;;;;21.78;64.46;100548.38;5010035;28;20092;-47
2023/07/23 09:01:16;;;;;;;5.25;3.58;;;;;;;21.49;65.92;100547.75;5009160;28;20037;-45
2023/07/23 09:03:42;;;;;;;4.82;3.50;;;;;;;21.52;65.65;100563.56;5008123;28;20116;-48
2023/07/23 09:06:09;;;;;;;8.07;3.40;;;;;;;21.68;65.08;100552.31;5010053;28;20134;-50
2023/07/23 09:08:35;;;;;;;9.48;3.50;;;;;;;21.78;64.77;100545.72;5009541;28;20038;-44
2023/07/23 09:11:05;;;;;;;6.90;3.50;;;;;;;22.05;64.19;100554.47;5009396;28;20104;-45
2023/07/23 09:13:34;;;;;;;5.50;3.00;;;;;;;21.77;65.31;100557.25;5009491;28;20128;-44
2023/07/23 09:16:00;;;;;;;4.93;3.20;;;;;;;21.90;64.42;100562.97;5009568;28;20128;-47
2023/07/23 09:18:25;;;;;;;5.05;3.20;;;;;;;21.89;64.73;100571.88;5009178;28;20040;-43
2023/07/23 09:20:51;;;;;;;7.40;3.15;;;;;;;21.84;65.92;100561.41;5009287;28;20638;-45
2023/07/23 09:23:16;;;;;;;4.50;2.97;;;;;;;22.02;65.53;100581.13;5009758;28;20038;-47
2023/07/23 09:25:44;;;;;;;4.97;2.95;;;;;;;21.68;67.04;100576.19;5009410;28;20048;-48
2023/07/23 09:28:20;;;;;;;5.57;3.00;;;;;;;21.74;67.12;100583.94;5008775;28;20030;-41
2023/07/23 09:30:45;;;;;;;4.38;3.08;;;;;;;21.94;66.94;100575.22;5008752;28;20531;-43
2023/07/23 09:33:12;;;;;;;4.53;2.83;;;;;;;21.61;67.46;100584.44;5009484;28;20062;-47
2023/07/23 09:35:38;;;;;;;6.07;3.30;;;;;;;21.54;68.48;100590.88;5009144;28;20443;-44
2023/07/23 09:38:04;;;;;;;5.78;3.40;;;;;;;21.34;69.54;100587.16;5009599;28;20034;-45
2023/07/23 09:40:38;;;;;;;4.53;3.30;;;;;;;21.59;68.94;100587.13;5008729;28;20044;-43
2023/07/23 09:43:03;;;;;;;4.85;3.20;;;;;;;21.49;70.02;100584.88;5009833;28;20556;-45
2023/07/23 09:45:30;;;;;;;5.43;3.60;;;;;;;21.52;69.88;100588.31;5009671;28;20133;-50
2023/07/23 09:47:58;;;;;;;5.18;3.28;;;;;;;21.70;69.30;100589.41;5010147;28;20044;-43
2023/07/23 09:50:24;;;;;;;5.40;3.60;;;;;;;21.68;69.28;100588.59;5009502;28;20044;-48
2023/07/23 09:52:52;;;;;;;6.55;3.50;;;;;;;21.89;68.36;100577.19;5012107;28;20594;-46
2023/07/23 09:55:20;;;;;;;6.25;3.58;;;;;;;21.39;69.69;100590.53;5013420;28;20079;-42
2023/07/23 09:57:52;;;;;;;5.07;3.80;;;;;;;21.50;70.26;100584.81;5013066;28;20037;-47
2023/07/23 10:00:18;;;;;;;5.68;4.00;;;;;;;21.79;70.05;100584.63;5012803;28;20041;-48
2023/07/23 10:02:48;;;;;;;5.68;3.70;;;;;;;21.45;71.07;100577.03;5012700;28;20026;-49
2023/07/23 10:05:17;;;;;;;5.07;3.60;;;;;;;21.68;70.11;100586.81;5012939;28;20044;-45
2023/07/23 10:07:45;;;;;;;5.65;3.28;;;;;;;22.03;69.44;100579.34;5012850;28;20046;-45
2023/07/23 10:10:12;;;;;;;5.82;3.33;;;;;;;22.28;67.81;100577.47;5011609;28;20121;-48
2023/07/23 10:12:37;;;;;;;4.45;3.35;;;;;;;22.14;67.91;100572.69;5012807;28;20041;-43
2023/07/23 10:15:03;;;;;;;5.10;3.10;;;;;;;22.38;66.32;100580.63;5014851;28;20034;-44
2023/07/23 10:17:29;;;;;;;4.22;3.00;;;;;;;22.75;66.30;100578.22;5014580;28;20069;-49
2023/07/23 10:19:55;;;;;;;4.78;3.45;;;;;;;22.59;65.92;100588.59;5015112;28;20033;-52
2023/07/23 10:22:24;;;;;;;4.43;3.17;;;;;;;22.50;66.76;100582.81;5014112;28;20481;-47
2023/07/23 10:24:52;;;;;;;5.53;3.40;;;;;;;22.38;67.47;100600.09;5014919;28;20370;-44
2023/07/23 10:27:18;;;;;;;5.72;3.22;;;;;;;22.45;67.24;100600.69;5014817;28;20037;-44
2023/07/23 10:30:20;;;;;;;5.15;3.20;;;;;;;22.53;66.77;100595.94;5013181;28;20037;-45
2023/07/23 10:33:09;;;;;;;4.63;3.33;;;;;;;22.82;66.72;100586.81;5012507;28;20030;-44
2023/07/23 10:35:52;;;;;;;4.38;3.20;;;;;;;22.70;66.65;100596.13;5012509;28;20037;-44
2023/07/23 10:38:28;;;;;;;6.32;3.22;;;;;;;22.91;66.20;100595.28;5012724;28;20069;-48
2023/07/23 10:40:54;;;;;;;5.93;3.30;;;;;;;22.80;66.09;100594.00;5011902;28;20026;-45
2023/07/23 10:43:20;;;;;;;4.72;3.40;;;;;;;23.18;65.60;100590.56;5012745;28;20049;-47
2023/07/23 10:46:05;;;;;;;6.18;3.40;;;;;;;23.61;64.73;100583.41;5011872;28;20030;-47
2023/07/23 10:48:48;;;;;;;6.47;3.30;;;;;;;24.40;62.02;100588.59;5011988;28;20041;-45
2023/07/23 10:51:18;;;;;;;6.20;3.40;;;;;;;24.93;60.63;100586.00;5011943;28;20038;-46
2023/07/23 10:54:05;;;;;;;5.45;3.70;;;;;;;24.71;59.45;100574.63;5011785;28;20112;-45
2023/07/23 10:56:35;;;;;;;4.93;3.28;;;;;;;25.01;59.82;100578.44;5012014;28;20046;-49
2023/07/23 10:59:14;;;;;;;4.32;3.30;;;;;;;24.40;58.85;100585.06;5009863;28;20041;-48
2023/07/23 11:01:41;;;;;;;6.82;3.40;;;;;;;24.80;59.03;100582.19;5011871;28;20068;-45
2023/07/23 11:04:18;;;;;;;6.40;3.75;;;;;;;24.75;58.17;100576.22;5012799;28;20030;-48
2023/07/23 11:07:06;;;;;;;5.15;3.30;;;;;;;24.47;58.63;100584.69;5012590;28;20065;-47
2023/07/23 11:09:36;;;;;;;4.45;3.33;;;;;;;24.52;59.39;100589.78;5012332;28;20413;-45
2023/07/23 11:12:05;;;;;;;5.90;3.20;;;;;;;24.37;59.82;100587.88;5011791;28;20401;-49
2023/07/23 11:14:31;;;;;;;4.88;3.45;;;;;;;24.62;59.28;100593.75;5012599;28;20107;-48
2023/07/23 11:16:59;;;;;;;5.20;3.13;;;;;;;24.52;59.23;100589.78;5010560;28;20040;-42
2023/07/23 11:19:25;;;;;;;5.43;3.47;;;;;;;24.90;58.31;100593.25;5011649;28;20026;-44
2023/07/23 11:21:59;;;;;;;5.10;3.03;;;;;;;24.83;57.83;100589.13;5011057;28;20030;-49